HOURLY OBS INDEX

033

Central Coast - east

ALVA BEACH

Site: 033295
Alt: 7.5m
74km ESE of TOWNSVILLE


  Time     Wind        Temp  DP   Baro     Rain since   Rain past  Vis(m), Cloud(base in m), Weather
  local        km/h                         9am  last   hr   10m    
Sun 20:00    C  0/  0  18.4 15.3  1017.8    0.0   0.0   0.0   0.0   ----- 
Sun 20:30    C  0/  0  17.8 15.2  1018.0    0.0   0.0   0.0   0.0   ----- 
Sun 21:00  WSW  9/ 11  17.0 14.8  1018.0    0.0   0.0   0.0   0.0   ----- 
Sun 21:30   SW  7/  7  17.0 15.0  1018.2    0.0   0.0   0.0   0.0   ----- 
Sun 22:00   SW  7/  9  17.0 14.6  1018.5    0.0   0.0   0.0   0.0   ----- 
Sun 22:30  SSW  7/  9  17.0 14.8  1018.6    0.0   0.0   0.0   0.0   ----- 
Sun 23:00  ESE  4/  9  17.5 15.5  1018.7    0.0   0.0   0.0   0.0   ----- 
Sun 23:30  ENE 19/ 24  21.5 15.6  1018.6    0.0   0.0   0.0   0.0   ----- 
Mon 00:00  ENE 19/ 24  21.4 16.1  1018.5    0.0   0.0   0.0   0.0   ----- 
Mon 00:30  ENE 19/ 24  21.2 16.8  1018.2    0.0   0.0   0.0   0.0   ----- 
Mon 01:00  ENE 19/ 24  21.2 16.6  1017.9    0.0   0.0   0.0   0.0   ----- 

AYR DPI RESEARCH STN

Site: 033002
Alt: 17.0m
71km SE of TOWNSVILLE


  Time     Wind        Temp  DP   Baro     Rain since   Rain past  Vis(m), Cloud(base in m), Weather
  local        km/h                         9am  last   hr   10m    
Sun 20:00    C  0/  0  16.9 10.7  ------    0.0   0.0   0.0   0.0   ----- 
Sun 20:30   NW  4/  7  16.4 10.7  ------    0.0   0.0   0.0   0.0   ----- 
Sun 21:00    C  0/  0  17.5 11.8  ------    0.0   0.0   0.0   0.0   ----- 
Sun 21:30  WNW  6/  7  16.9 11.8  ------    0.0   0.0   0.0   0.0   ----- 
Sun 22:00  WNW  2/  6  15.3 10.9  ------    0.0   0.0   0.0   0.0   ----- 
Sun 22:30  ESE  7/ 13  15.4 11.8  ------    0.0   0.0   0.0   0.0   ----- 
Sun 23:00    C  0/  0  14.2 10.0  ------    0.0   0.0   0.0   0.0   ----- 
Sun 23:30    C  0/  0  13.9 10.7  ------    0.0   0.0   0.0   0.0   ----- 
Mon 00:00    C  0/  0  13.3  9.9  ------    0.0   0.0   0.0   0.0   ----- 
Mon 00:30    C  0/  0  13.0  9.8  ------    0.0   0.0   0.0   0.0   ----- 
Mon 01:00   SE  2/  7  13.5 10.7  ------    0.0   0.0   0.0   0.0   ----- 

BOWEN AIRPORT AWS

Site: 033327
Alt: 5.9m
km of


  Time     Wind        Temp  DP   Baro     Rain since   Rain past  Vis(m), Cloud(base in m), Weather
  local        km/h                         9am  last   hr   10m    
Sun 20:00  ENE 11/ 19  21.4 15.9  1017.8    0.0   0.0   0.0   0.0   ----- 
Sun 20:30    E 19/ 26  21.6 13.2  1018.1    0.0   0.0   0.0   0.0   ----- 
Sun 21:00    E 17/ 22  21.4 12.3  1018.3    0.0   0.0   0.0   0.0   ----- 
Sun 21:30    E 17/ 20  21.1 12.3  1018.4    0.0   0.0   0.0   0.0   ----- 
Sun 22:00  ESE 13/ 17  19.2 10.2  1018.5    0.0   0.0   0.0   0.0   ----- 
Sun 22:30  SSE  7/  9  17.6  9.2  1018.7    0.0   0.0   0.0   0.0   ----- 
Sun 23:00  SSE  4/  4  16.3  9.0  1018.8    0.0   0.0   0.0   0.0   ----- 
Sun 23:30  SSE  2/  4  16.3 10.6  1018.8    0.0   0.0   0.0   0.0   ----- 
Mon 00:00  SSE  6/  7  16.3 11.9  1018.7    0.0   0.0   0.0   0.0   ----- 
Mon 00:30  SSE  6/  6  15.9 11.9  1018.6    0.0   0.0   0.0   0.0   ----- 
Mon 01:00  SSE  4/  6  16.1 12.1  1018.3    0.0   0.0   0.0   0.0   ----- 

HAMILTON ISLAND AIRPORT

Site: 033106
Alt: 58.7m
83km ESE of BOWEN


  Time     Wind        Temp  DP   Baro     Rain since   Rain past  Vis(m), Cloud(base in m), Weather
  local        km/h                         9am  last   hr   10m    
Sun 20:00    E 39/ 43  20.7 14.4  1018.0    0.0   0.0   0.0   0.0   10000 
Sun 20:30    E 37/ 43  20.7 14.1  1018.2    0.0   0.0   0.0   0.0   10000 
Sun 21:00    E 32/ 41  20.5 14.8  1018.5    0.0   0.0   0.0   0.0   10000 
Sun 21:30    E 33/ 39  20.4 15.2  1018.6    0.0   0.0   0.0   0.0   10000 
Sun 22:00  ESE 30/ 35  20.1 15.5  1018.6    0.0   0.0   0.0   0.0   10000 
Sun 22:30  ESE 30/ 33  20.1 16.1  1018.6    0.0   0.0   0.0   0.0   10000 
Sun 23:00    E 28/ 33  20.2 15.0  1018.7    0.0   0.0   0.0   0.0   10000 
Sun 23:30  ESE 26/ 32  20.2 15.0  1018.8    0.0   0.0   0.0   0.0   10000 
Mon 00:00    E 26/ 30  20.1 14.2  1018.9    0.0   0.0   0.0   0.0   10000 
Mon 00:30  ESE 24/ 28  20.0 14.4  1018.7    0.0   0.0   0.0   0.0   10000 
Mon 01:00  ESE 22/ 26  20.0 14.4  1018.5    0.0   0.0   0.0   0.0   10000 

HAY POINT

Site: 033317
Alt: 7.0m
20km SE of MACKAY


  Time     Wind        Temp  DP   Baro     Rain since   Rain past  Vis(m), Cloud(base in m), Weather
  local        km/h                         9am  last   hr   10m    
Sun 20:00  ESE  9/ 11 --------  ------   ----  ----  ----  ----   ----- 
Sun 20:30    E 15/ 17 --------  ------   ----  ----  ----  ----   ----- 
Sun 21:00  ENE 15/ 19 --------  ------   ----  ----  ----  ----   ----- 
Sun 21:30    E 17/ 20 --------  ------   ----  ----  ----  ----   ----- 
Sun 22:00    E 17/ 19 --------  ------   ----  ----  ----  ----   ----- 
Sun 22:30    E 17/ 19 --------  ------   ----  ----  ----  ----   ----- 
Sun 23:00    E 17/ 19 --------  ------   ----  ----  ----  ----   ----- 
Sun 23:30  ESE 15/ 17 --------  ------   ----  ----  ----  ----   ----- 
Mon 00:00  SSE 11/ 15 --------  ------   ----  ----  ----  ----   ----- 
Mon 00:30  SSW 11/ 13 --------  ------   ----  ----  ----  ----   ----- 
Mon 01:00  SSW 11/ 13 --------  ------   ----  ----  ----  ----   ----- 

MACKAY AERO

Site: 033045
Alt: 4.7m
3km S of MACKAY


  Time     Wind        Temp  DP   Baro     Rain since   Rain past  Vis(m), Cloud(base in m), Weather
  local        km/h                         9am  last   hr   10m    
Sun 20:00  ESE 11/ 13  17.8 15.1  1018.7    0.2   0.0   0.0   0.0   10000 
Sun 20:30    C  0/  6  17.0 15.0  1018.9    0.2   0.0   0.0   0.0   10000 
Sun 21:00  SSW  7/  9  15.2 13.6  1019.0    0.2   0.0   0.0   0.0   10000 
Sun 21:30   SW  4/  9  14.8 13.3  1019.1    0.2   0.0   0.0   0.0   10000 
Sun 22:00  WSW 13/ 13  13.9 12.5  1019.1    0.2   0.0   0.0   0.0   10000 
Sun 22:30  WSW  9/ 11  13.1 11.3  1019.1    0.2   0.0   0.0   0.0   10000 
Sun 23:00  WSW  9/ 11  12.6 10.3  1019.3    0.2   0.0   0.0   0.0   10000 
Sun 23:30    W  9/ 11  12.1 10.2  1019.4    0.2   0.0   0.0   0.0   10000 
Mon 00:00    W  7/  9  12.1 10.7  1019.3    0.2   0.0   0.0   0.0   10000 
Mon 00:30  WSW  6/  7  12.4 11.3  1019.2    0.2   0.0   0.0   0.0   10000 
Mon 01:00    W  7/  9  12.2 11.1  1018.9    0.2   0.0   0.0   0.0   10000 

MACKAY M.O

Site: 033119
Alt: 30.3m
5km NE of MACKAY


  Time     Wind        Temp  DP   Baro     Rain since   Rain past  Vis(m), Cloud(base in m), Weather
  local        km/h                         9am  last   hr   10m    
Sun 20:00    E 13/ 17  19.9 16.2  1018.8    0.0   0.0   0.0   0.0   ----- 
Sun 20:30  ENE 11/ 19  19.2 14.5  1018.9    0.0   0.0   0.0   0.0   ----- 
Sun 21:00    E 15/ 20  19.7 15.1  1019.1    0.0   0.0   0.0   0.0   ----- 
Sun 21:30  ENE 11/ 19  19.1 15.0  1019.1    0.0   0.0   0.0   0.0   ----- 
Sun 22:00    E  9/ 17  19.7 14.3  1019.1    0.0   0.0   0.0   0.0   ----- 
Sun 22:30    E  9/ 15  19.7 13.2  1019.1    0.0   0.0   0.0   0.0   ----- 
Sun 23:00  SSW  7/  9  16.7 12.7  1019.2    0.0   0.0   0.0   0.0   ----- 
Sun 23:30  WSW 11/ 15  15.1 11.7  1019.4    0.0   0.0   0.0   0.0   ----- 
Mon 00:00  WSW 11/ 13  15.1 12.1  1019.4    0.0   0.0   0.0   0.0   ----- 
Mon 00:30  WSW 11/ 13  15.0 12.7  1019.2    0.0   0.0   0.0   0.0   ----- 
Mon 01:00  WSW 13/ 15  14.9 12.9  1018.9    0.0   0.0   0.0   0.0   ----- 

OORALEA RACECOURSE (MACKAY TURF CLUB)

Site: 033329
Alt: 10.3m
km of


  Time     Wind        Temp  DP   Baro     Rain since   Rain past  Vis(m), Cloud(base in m), Weather
  local        km/h                         9am  last   hr   10m    
Sun 20:00    E  2/  4  16.1 13.8  ------    0.0   0.0   0.0   0.0   ----- 
Sun 20:30    C  0/  0  14.9 13.3  ------    0.0   0.0   0.0   0.0   ----- 
Sun 21:00    C  0/  0  14.2 12.9  ------    0.0   0.0   0.0   0.0   ----- 
Sun 21:30    C  0/  0  13.5 12.6  ------    0.0   0.0   0.0   0.0   ----- 
Sun 22:00    C  0/  4  12.9 12.0  ------    0.0   0.0   0.0   0.0   ----- 
Sun 22:30    C  0/  2  12.8 11.7  ------    0.0   0.0   0.0   0.0   ----- 
Sun 23:00    C  0/  0  12.5 11.6  ------    0.0   0.0   0.0   0.0   ----- 
Sun 23:30    C  0/  0  12.8 12.0  ------    0.0   0.0   0.0   0.0   ----- 
Mon 00:00    C  0/  0  12.2 11.3  ------    0.0   0.0   0.0   0.0   ----- 
Mon 00:30    C  0/  0  12.2 11.4  ------    0.0   0.0   0.0   0.0   ----- 
Mon 01:00    E  4/  6  12.1 11.3  ------    0.0   0.0   0.0   0.0   ----- 

PROSERPINE AIRPORT

Site: 033247
Alt: 19.7m
62km SSE of BOWEN


  Time     Wind        Temp  DP   Baro     Rain since   Rain past  Vis(m), Cloud(base in m), Weather
  local        km/h                         9am  last   hr   10m    
Sun 20:00  SSE  6/  9  17.3 14.9  1018.3    0.0   0.0   0.0   0.0   ----- 
Sun 20:30    S  9/ 11  15.6 13.1  1018.6    0.0   0.0   0.0   0.0   ----- 
Sun 21:00    S  6/  7  15.5 13.5  1018.8    0.0   0.0   0.0   0.0   ----- 
Sun 21:30    S  2/  6  15.2 13.4  1018.8    0.0   0.0   0.0   0.0   ----- 
Sun 22:00  SSW  7/  9  14.1 12.3  1018.9    0.0   0.0   0.0   0.0   ----- 
Sun 22:30  SSW  9/ 11  13.8 12.2  1018.9    0.0   0.0   0.0   0.0   ----- 
Sun 23:00   SW 11/ 11  13.6 12.2  1019.0    0.0   0.0   0.0   0.0   ----- 
Sun 23:30  SSW 11/ 13  13.5 11.7  1019.0    0.0   0.0   0.0   0.0   ----- 
Mon 00:00  SSW 11/ 13  13.3 11.0  1019.0    0.0   0.0   0.0   0.0   ----- 
Mon 00:30  SSW  9/ 11  12.9 10.6  1018.9    0.0   0.0   0.0   0.0   ----- 
Mon 01:00  SSW  6/  9  12.7 10.8  1018.7    0.0   0.0   0.0   0.0   ----- 

ROSSLYN BAY NTC AWS

Site: 033208
Alt: 0.0m
37km NE of ROCKHAMPTON


  Time     Wind        Temp  DP   Baro     Rain since   Rain past  Vis(m), Cloud(base in m), Weather
  local        km/h                         9am  last   hr   10m    
Sun 20:00   NE  9/ 13  20.3----  1018.9   ----  ----  ----  ----   ----- 
Sun 20:30   NE  9/ 15  20.3----  1018.9   ----  ----  ----  ----   ----- 
Sun 21:00   NE  9/ 13  20.2----  1018.8   ----  ----  ----  ----   ----- 
Sun 21:30   NE  9/ 13  20.2----  1018.8   ----  ----  ----  ----   ----- 
Sun 22:00   NE  9/ 11  20.2----  1018.7   ----  ----  ----  ----   ----- 
Sun 22:30    N  7/  9  19.2----  1018.8   ----  ----  ----  ----   ----- 
Sun 23:00    N  7/  9  19.0----  1018.9   ----  ----  ----  ----   ----- 
Sun 23:30    N  6/  7  18.9----  1018.9   ----  ----  ----  ----   ----- 
Mon 00:00    N  4/  6  18.7----  1018.8   ----  ----  ----  ----   ----- 
Mon 00:30  NNE  9/ 11  19.2----  1018.4   ----  ----  ----  ----   ----- 
Mon 01:00  ENE 13/ 17  20.0----  1018.4   ----  ----  ----  ----   ----- 

SAMUEL HILL AERO

Site: 033308
Alt: 31.0m
71km NNE of ROCKHAMPTON


  Time     Wind        Temp  DP   Baro     Rain since   Rain past  Vis(m), Cloud(base in m), Weather
  local        km/h                         9am  last   hr   10m    
Sun 20:00    C  0/  0  11.7  9.4  1019.4    0.0   0.0   0.0   0.0   10000 
Sun 20:30    C  0/  0  11.0  8.9  1019.5    0.0   0.0   0.0   0.0   10000 
Sun 21:00    C  0/  0  10.4  8.7  1019.3    0.0   0.0   0.0   0.0   10000 
Sun 21:30    C  0/  0   9.7  8.0  1019.4    0.0   0.0   0.0   0.0   10000 
Sun 22:00    C  0/  0   9.5  7.9  1019.3    0.0   0.0   0.0   0.0   10000 
Sun 22:30    C  0/  0   8.8  7.4  1019.4    0.0   0.0   0.0   0.0   10000 
Sun 23:00    C  0/  0   9.4  8.3  1019.4    0.0   0.0   0.0   0.0   10000 
Sun 23:30    C  0/  7   8.9  7.8  1019.4    0.0   0.0   0.0   0.0   10000 
Mon 00:00    C  0/  0   8.5  7.3  1019.2    0.0   0.0   0.0   0.0   10000 
Mon 00:30    C  0/  0   8.1  6.9  1019.1    0.0   0.0   0.0   0.0   10000 
Mon 01:00    C  0/  0   7.6  6.5  1018.8    0.0   0.0   0.0   0.0   10000 

ST LAWRENCE

Site: 033210
Alt: 9.2m
138km SSE of MACKAY


  Time     Wind        Temp  DP   Baro     Rain since   Rain past  Vis(m), Cloud(base in m), Weather
  local        km/h                         9am  last   hr   10m    
Sun 20:00    C  0/  0  16.5  7.7  1018.9    0.0   0.0   0.0   0.0   ----- 
Sun 20:30    C  0/  0  15.9  8.6  1019.1    0.0   0.0   0.0   0.0   ----- 
Sun 21:00    C  0/  0  14.6  8.1  1019.2    0.0   0.0   0.0   0.0   ----- 
Sun 21:30    C  0/  0  13.9  8.3  1019.4    0.0   0.0   0.0   0.0   ----- 
Sun 22:00  WSW  7/  9  14.3  7.1  1019.2    0.0   0.0   0.0   0.0   ----- 
Sun 22:30   SW  4/  6  14.1  6.7  1019.3    0.0   0.0   0.0   0.0   ----- 
Sun 23:00    C  0/  0  13.2  6.5  1019.4    0.0   0.0   0.0   0.0   ----- 
Sun 23:30    C  0/  0  13.1  6.7  1019.3    0.0   0.0   0.0   0.0   ----- 
Mon 00:00    C  0/  0  11.9  6.2  1019.3    0.0   0.0   0.0   0.0   ----- 
Mon 00:30    C  0/  0  11.5  6.6  1019.2    0.0   0.0   0.0   0.0   ----- 
Mon 01:00    C  0/  0  11.4  6.9  1019.0    0.0   0.0   0.0   0.0   ----- 

TOWNSVILLE-FANNING RIVER (DEFENCE)

Site: 033328
Alt: 329.0m
67km NNE of TOWNSVILLE


  Time     Wind        Temp  DP   Baro     Rain since   Rain past  Vis(m), Cloud(base in m), Weather
  local        km/h                         9am  last   hr   10m    
Sun 20:00    E  4/  7  18.3 10.9  1018.6    0.0   0.0   0.0   0.0   ----- 
Sun 20:30  ESE  4/  6  17.4 10.8  1018.8    0.0   0.0   0.0   0.0   ----- 
Sun 21:00  ESE  4/  6  16.8 10.4  1019.0    0.0   0.0   0.0   0.0   ----- 
Sun 21:30    E  6/  7  16.6  9.8  1018.9    0.0   0.0   0.0   0.0   ----- 
Sun 22:00    E  7/ 11  17.0  9.4  1018.9    0.0   0.0   0.0   0.0   ----- 
Sun 22:30  ESE  6/ 13  16.5  9.0  1018.9    0.0   0.0   0.0   0.0   ----- 
Sun 23:00    E  6/  9  16.6  8.6  1019.0    0.0   0.0   0.0   0.0   ----- 
Sun 23:30    E  6/  7  16.0  8.2  1019.1    0.0   0.0   0.0   0.0   ----- 
Mon 00:00    E  7/  9  16.5  8.0  1019.0    0.0   0.0   0.0   0.0   ----- 
Mon 00:30    E  7/ 11  16.5  7.7  1018.9    0.0   0.0   0.0   0.0   ----- 
Mon 01:00    E  6/  7  15.8  7.6  1018.8    0.0   0.0   0.0   0.0   ----- 

WILLIAMSON

Site: 033195
Alt: 27.6m
105km NNW of ROCKHAMPTON


  Time     Wind        Temp  DP   Baro     Rain since   Rain past  Vis(m), Cloud(base in m), Weather
  local        km/h                         9am  last   hr   10m    
Sun 20:00    C  0/  0  15.1  9.9  1019.1    0.0   0.0   0.0   0.0   ----- 
Sun 20:30    C  0/  0  14.2 10.4  1019.2    0.0   0.0   0.0   0.0   ----- 
Sun 21:00    C  0/  0  13.4  9.6  1019.0    0.0   0.0   0.0   0.0   ----- 
Sun 21:30  ENE  6/ 13  12.9  9.7  1019.1    0.0   0.0   0.0   0.0   ----- 
Sun 22:00  ENE  6/ 13  14.9 10.7  1019.0    0.0   0.0   0.0   0.0   ----- 
Sun 22:30  ENE  9/ 15  15.0 12.9  1019.2    0.0   0.0   0.0   0.0   ----- 
Sun 23:00    C  0/  0  11.4  8.4  1019.4    0.0   0.0   0.0   0.0   ----- 
Sun 23:30    C  0/  0  10.8  8.6  1019.3    0.0   0.0   0.0   0.0   ----- 
Mon 00:00    C  0/  0  10.3  8.1  1019.3    0.0   0.0   0.0   0.0   ----- 
Mon 00:30    C  0/  0   9.7  7.8  1019.3    0.0   0.0   0.0   0.0   ----- 
Mon 01:00    C  0/  0   9.5  7.6  1019.1    0.0   0.0   0.0   0.0   ----- 

WOOLSHED

Site: 033307
Alt: 556.0m
34km WSW of TOWNSVILLE


  Time     Wind        Temp  DP   Baro     Rain since   Rain past  Vis(m), Cloud(base in m), Weather
  local        km/h                         9am  last   hr   10m    
Sun 20:00   NE  4/  7  15.6 12.0  1019.7    0.0   0.0   0.0   0.0   ----- 
Sun 20:30    C  0/  0  14.6 11.2  1019.9    0.0   0.0   0.0   0.0   ----- 
Sun 21:00    C  0/  0  14.0 11.5  1020.2    0.0   0.0   0.0   0.0   ----- 
Sun 21:30    C  0/  0  14.1 11.4  1020.1    0.0   0.0   0.0   0.0   ----- 
Sun 22:00  ENE  4/  6  14.9 10.5  1020.1    0.0   0.0   0.0   0.0   ----- 
Sun 22:30   NE  4/  7  14.2  9.8  1020.1    0.0   0.0   0.0   0.0   ----- 
Sun 23:00  ENE  4/  6  14.1  9.5  1020.2    0.0   0.0   0.0   0.0   ----- 
Sun 23:30  ENE  4/  6  14.6  9.2  1020.2    0.0   0.0   0.0   0.0   ----- 
Mon 00:00   NE  4/  7  15.0  9.1  1020.1    0.0   0.0   0.0   0.0   ----- 
Mon 00:30  ENE  7/ 11  15.9  8.4  1019.9    0.0   0.0   0.0   0.0   ----- 
Mon 01:00   NE  6/ 11  15.8  8.5  1019.6    0.0   0.0   0.0   0.0   ----- 

YEPPOON THE ESPLANADE

Site: 033294
Alt: 5.5m
36km NE of ROCKHAMPTON


  Time     Wind        Temp  DP   Baro     Rain since   Rain past  Vis(m), Cloud(base in m), Weather
  local        km/h                         9am  last   hr   10m    
Sun 20:00  NNE 13/ 15  19.4 15.5  1019.3    0.0   0.0   0.0   0.0   ----- 
Sun 20:30    N 13/ 15  18.9 15.6  1019.2    0.0   0.0   0.0   0.0   ----- 
Sun 21:00    N 11/ 13  16.0 12.2  1019.1    0.0   0.0   0.0   0.0   ----- 
Sun 21:30    N 13/ 15  16.8 14.4  1019.1    0.0   0.0   0.0   0.0   ----- 
Sun 22:00    C  0/  6  14.4 12.4  1019.0    0.0   0.0   0.0   0.0   ----- 
Sun 22:30    C  0/  6  14.1 12.7  1019.1    0.0   0.0   0.0   0.0   ----- 
Sun 23:00    C  0/  0  13.7 12.4  1019.2    0.0   0.0   0.0   0.0   ----- 
Sun 23:30    C  0/  0  13.4 12.3  1019.2    0.0   0.0   0.0   0.0   ----- 
Mon 00:00    N  6/ 13  13.7 12.8  1019.1    0.0   0.0   0.0   0.0   ----- 
Mon 00:30    N 13/ 15  17.6 16.1  1018.7    0.0   0.0   0.0   0.0   ----- 
Mon 01:00    N  6/  9  14.0 11.7  1018.7    0.0   0.0   0.0   0.0   -----